Mirandopolis, Brazil
Current Conditions -  °F | °C
As of 2:00 PM on Sunday 23 Nov 2014 (Local Time) from SBDN Reporting Station
Broken Clouds Broken Clouds  
Wind Chill: 81°   Ceiling: 2500
Heat Index: 83°   Visibility: 6mi
Dew Point: 66°   Wind: 9mph
Humidity: 61%   Direction: 90°E
Pressure: 29.94"   Gusts: NA
Location:  21.13°S, 51.11°W
Report Text: SBDN 231600Z 09008KT 9999 BKN025 BKN100 27/19 Q1014
Loading
Personal Weather Stations






























Interactive Weather Map New forecast layout! Learn more

10-Day Weather Forecast

Advertisements
Track Severe Weather on mobile